createdAt,value
2018-09-26T00:00:31.787Z,20.16
2018-09-26T00:01:31.599Z,20.17
2018-09-26T00:02:31.532Z,20.15
2018-09-26T00:03:31.723Z,20.16
2018-09-26T00:04:31.492Z,20.16
2018-09-26T00:05:31.749Z,20.18
2018-09-26T00:06:31.739Z,20.16
2018-09-26T00:07:31.335Z,20.15
2018-09-26T00:08:31.767Z,20.16
2018-09-26T00:09:31.537Z,20.16
2018-09-26T00:10:31.782Z,20.16
2018-09-26T00:11:31.483Z,20.16
2018-09-26T00:12:31.673Z,20.16
2018-09-26T00:13:31.357Z,20.15
2018-09-26T00:14:31.637Z,20.14
2018-09-26T00:15:31.926Z,20.13
2018-09-26T00:16:31.928Z,20.13
2018-09-26T00:17:31.508Z,20.15
2018-09-26T00:18:31.443Z,20.13
2018-09-26T00:19:31.824Z,20.13
2018-09-26T00:20:31.578Z,20.12
2018-09-26T00:21:31.861Z,20.13
2018-09-26T00:22:31.739Z,20.13
2018-09-26T00:23:31.774Z,20.15
2018-09-26T00:24:31.768Z,20.14
2018-09-26T00:25:31.518Z,20.1
2018-09-26T00:26:31.505Z,20.13
2018-09-26T00:27:32.115Z,20.12
2018-09-26T00:28:31.451Z,20.12
2018-09-26T00:29:31.853Z,20.12
2018-09-26T00:30:31.520Z,20.13
2018-09-26T00:31:31.748Z,20.15
2018-09-26T00:32:31.517Z,20.12
2018-09-26T00:33:31.430Z,20.14
2018-09-26T00:34:31.339Z,20.12
2018-09-26T00:35:31.710Z,20.13
2018-09-26T00:36:31.427Z,20.12
2018-09-26T00:37:31.294Z,20.1
2018-09-26T00:38:31.642Z,20.09
2018-09-26T00:39:31.801Z,20.12
2018-09-26T00:40:31.622Z,20.11
2018-09-26T00:41:31.311Z,20.13
2018-09-26T00:42:31.344Z,20.12
2018-09-26T00:43:31.507Z,20.07
2018-09-26T00:44:31.695Z,20.1
2018-09-26T00:45:31.518Z,20.09
2018-09-26T00:46:31.612Z,20.09
2018-09-26T00:47:31.716Z,20.1
2018-09-26T00:48:31.580Z,20.09
2018-09-26T00:49:31.380Z,20.11
2018-09-26T00:50:31.711Z,20.09
2018-09-26T00:51:31.445Z,20.1
2018-09-26T00:52:31.451Z,20.11
2018-09-26T00:53:31.386Z,20.11
2018-09-26T00:54:31.439Z,20.1
2018-09-26T00:55:31.510Z,20.11
2018-09-26T00:56:31.469Z,20.12
2018-09-26T00:57:31.390Z,20.11
2018-09-26T00:58:31.404Z,20.07
2018-09-26T00:59:31.349Z,20.07
2018-09-26T01:00:31.538Z,20.11
2018-09-26T01:01:31.534Z,20.07
2018-09-26T01:02:31.435Z,20.11
2018-09-26T01:03:31.570Z,20.09
2018-09-26T01:04:31.601Z,20.06
2018-09-26T01:05:31.412Z,20.07
2018-09-26T01:06:31.507Z,20.07
2018-09-26T01:07:31.429Z,20.07
2018-09-26T01:08:31.662Z,20.09
2018-09-26T01:09:31.387Z,20.06
2018-09-26T01:10:31.441Z,20.07
2018-09-26T01:11:31.903Z,20.07
2018-09-26T01:12:31.801Z,20.09
2018-09-26T01:13:31.863Z,20.1
2018-09-26T01:14:31.526Z,20.07
2018-09-26T01:15:31.846Z,20.07
2018-09-26T01:16:31.406Z,20.09
2018-09-26T01:17:31.762Z,20.09
2018-09-26T01:18:31.965Z,20.07
2018-09-26T01:19:31.848Z,20.06
2018-09-26T01:20:31.575Z,20.03
2018-09-26T01:21:31.767Z,20.07
2018-09-26T01:22:31.791Z,20.07
2018-09-26T01:23:31.814Z,20.07
2018-09-26T01:24:31.780Z,20.07
2018-09-26T01:25:31.576Z,20.09
2018-09-26T01:26:31.436Z,20.07
2018-09-26T01:27:31.831Z,20.05
2018-09-26T01:28:31.592Z,20.05
2018-09-26T01:29:31.850Z,20.06
2018-09-26T01:30:31.863Z,20.09
2018-09-26T01:31:31.625Z,20.07
2018-09-26T01:32:31.363Z,20.09
2018-09-26T01:33:31.863Z,20.06
2018-09-26T01:34:31.489Z,20.09
2018-09-26T01:35:31.510Z,20.07
2018-09-26T01:36:31.501Z,20.07
2018-09-26T01:37:31.460Z,20.06
2018-09-26T01:38:31.522Z,20.05
2018-09-26T01:39:31.475Z,20.07
2018-09-26T01:40:31.503Z,20.05
2018-09-26T01:41:32.554Z,20.05
2018-09-26T01:42:31.505Z,20.05
2018-09-26T01:43:31.645Z,20.06
2018-09-26T01:44:31.979Z,20.07
2018-09-26T01:45:31.739Z,20.07
2018-09-26T01:46:31.426Z,20.07
2018-09-26T01:47:31.393Z,20.05
2018-09-26T01:48:31.482Z,20.06
2018-09-26T01:49:31.415Z,20.05
2018-09-26T01:50:31.759Z,20.05
2018-09-26T01:51:31.759Z,20.07
2018-09-26T01:52:31.362Z,20.04
2018-09-26T01:53:31.640Z,20.04
2018-09-26T01:54:31.608Z,20.04
2018-09-26T01:55:31.596Z,20.03
2018-09-26T01:56:31.844Z,20.04
2018-09-26T01:57:31.890Z,20.04
2018-09-26T01:58:31.345Z,20.04
2018-09-26T01:59:31.378Z,20.04
2018-09-26T02:00:31.760Z,20.05
2018-09-26T02:01:32.066Z,20.03
2018-09-26T02:02:31.558Z,20.06
2018-09-26T02:03:31.670Z,20.04
2018-09-26T02:04:31.461Z,20.04
2018-09-26T02:05:31.432Z,20.05
2018-09-26T02:06:31.532Z,20.04
2018-09-26T02:07:31.378Z,20.05
2018-09-26T02:08:31.590Z,20.06
2018-09-26T02:09:31.627Z,20.04
2018-09-26T02:10:31.346Z,20.01
2018-09-26T02:11:31.358Z,20.03
2018-09-26T02:12:31.378Z,20.04
2018-09-26T02:13:31.443Z,20.02
2018-09-26T02:14:31.301Z,20.03
2018-09-26T02:15:31.396Z,20.03
2018-09-26T02:16:31.315Z,20.03
2018-09-26T02:17:31.682Z,20.02
2018-09-26T02:18:31.531Z,20.04
2018-09-26T02:19:31.975Z,20.02
2018-09-26T02:20:31.679Z,20.01
2018-09-26T02:21:31.431Z,20.04
2018-09-26T02:22:31.441Z,20.02
2018-09-26T02:23:31.757Z,20.02
2018-09-26T02:24:31.532Z,20.02
2018-09-26T02:25:31.507Z,20.04
2018-09-26T02:26:31.565Z,20.03
2018-09-26T02:27:31.539Z,20
2018-09-26T02:28:31.817Z,20.02
2018-09-26T02:29:31.535Z,20.03
2018-09-26T02:30:31.768Z,20
2018-09-26T02:31:31.397Z,20.01
2018-09-26T02:32:31.397Z,20.04
2018-09-26T02:33:31.723Z,20.02
2018-09-26T02:34:31.428Z,20.01
2018-09-26T02:35:31.418Z,20.01
2018-09-26T02:36:31.715Z,20.03
2018-09-26T02:37:31.504Z,20.01
2018-09-26T02:38:31.417Z,20.02
2018-09-26T02:39:31.725Z,20.02
2018-09-26T02:40:31.762Z,20.02
2018-09-26T02:41:31.871Z,20
2018-09-26T02:42:31.582Z,19.99
2018-09-26T02:43:31.389Z,20
2018-09-26T02:44:31.368Z,20.01
2018-09-26T02:45:31.566Z,20.01
2018-09-26T02:46:31.583Z,20.01
2018-09-26T02:47:31.417Z,20.02
2018-09-26T02:48:31.588Z,20.02
2018-09-26T02:49:31.327Z,20.01
2018-09-26T02:50:31.466Z,20.03
2018-09-26T02:51:31.305Z,20.03
2018-09-26T02:52:32.460Z,20.01
2018-09-26T02:53:31.508Z,20
2018-09-26T02:54:31.493Z,20.01
2018-09-26T02:55:31.659Z,20.01
2018-09-26T02:56:31.517Z,19.99
2018-09-26T02:57:31.297Z,20
2018-09-26T02:58:31.595Z,20.01
2018-09-26T02:59:31.385Z,20.01
2018-09-26T03:00:31.501Z,19.98
2018-09-26T03:01:31.780Z,19.99
2018-09-26T03:02:31.256Z,20
2018-09-26T03:03:31.479Z,19.98
2018-09-26T03:04:31.536Z,20.01
2018-09-26T03:05:31.519Z,19.99
2018-09-26T03:06:31.613Z,20
2018-09-26T03:07:31.489Z,19.99
2018-09-26T03:08:31.843Z,20
2018-09-26T03:09:31.353Z,19.99
2018-09-26T03:10:31.824Z,19.98
2018-09-26T03:11:31.732Z,19.99
2018-09-26T03:12:31.300Z,19.99
2018-09-26T03:13:31.859Z,19.97
2018-09-26T03:14:31.437Z,19.96
2018-09-26T03:15:31.806Z,19.98
2018-09-26T03:16:31.582Z,19.99
2018-09-26T03:17:32.158Z,19.99
2018-09-26T03:18:31.479Z,19.98
2018-09-26T03:19:32.090Z,19.96
2018-09-26T03:20:31.343Z,19.97
2018-09-26T03:21:31.292Z,19.99
2018-09-26T03:22:31.819Z,19.96
2018-09-26T03:23:31.444Z,19.98
2018-09-26T03:24:31.667Z,19.97
2018-09-26T03:25:31.367Z,19.95
2018-09-26T03:26:31.448Z,19.95
2018-09-26T03:27:31.399Z,19.97
2018-09-26T03:28:31.358Z,19.99
2018-09-26T03:29:31.384Z,19.97
2018-09-26T03:30:31.531Z,19.96
2018-09-26T03:31:31.395Z,19.97
2018-09-26T03:32:31.351Z,19.99
2018-09-26T03:33:31.940Z,19.96
2018-09-26T03:34:31.200Z,19.98
2018-09-26T03:35:31.447Z,19.99
2018-09-26T03:36:31.518Z,19.99
2018-09-26T03:37:31.385Z,19.98
2018-09-26T03:38:31.468Z,19.95
2018-09-26T03:39:31.591Z,19.96
2018-09-26T03:40:31.249Z,19.95
2018-09-26T03:41:31.353Z,19.97
2018-09-26T03:42:31.749Z,19.99
2018-09-26T03:43:31.281Z,19.96
2018-09-26T03:44:31.883Z,19.97
2018-09-26T03:45:31.778Z,19.96
2018-09-26T03:46:31.473Z,19.95
2018-09-26T03:47:31.864Z,19.96
2018-09-26T03:48:31.735Z,19.94
2018-09-26T03:49:31.434Z,19.96
2018-09-26T03:50:31.543Z,19.97
2018-09-26T03:51:31.467Z,19.95
2018-09-26T03:52:31.459Z,19.94
2018-09-26T03:53:31.390Z,19.95
2018-09-26T03:54:31.555Z,19.94
2018-09-26T03:55:31.638Z,19.96
2018-09-26T03:56:31.330Z,19.97
2018-09-26T03:57:31.898Z,19.95
2018-09-26T03:58:31.604Z,19.95
2018-09-26T03:59:31.843Z,19.94
2018-09-26T04:00:31.402Z,19.96
2018-09-26T04:01:31.404Z,19.95
2018-09-26T04:02:31.504Z,19.97
2018-09-26T04:03:31.625Z,19.92
2018-09-26T04:04:31.533Z,19.94
2018-09-26T04:05:31.352Z,19.92
2018-09-26T04:06:31.432Z,19.9
2018-09-26T04:07:31.835Z,19.95
2018-09-26T04:08:31.357Z,19.97
2018-09-26T04:09:31.473Z,19.92
2018-09-26T04:10:31.387Z,19.95
2018-09-26T04:11:31.627Z,19.92
2018-09-26T04:12:31.763Z,19.92
2018-09-26T04:13:31.413Z,19.96
2018-09-26T04:14:31.432Z,19.95
2018-09-26T04:15:31.961Z,19.94
2018-09-26T04:16:31.723Z,19.91
2018-09-26T04:17:31.511Z,19.9
2018-09-26T04:18:31.320Z,19.95
2018-09-26T04:19:31.753Z,19.94
2018-09-26T04:20:32.157Z,19.95
2018-09-26T04:21:31.918Z,19.92
2018-09-26T04:22:31.323Z,19.92
2018-09-26T04:23:31.479Z,19.94
2018-09-26T04:24:31.647Z,19.95
2018-09-26T04:25:31.419Z,19.92
2018-09-26T04:26:33.026Z,19.94
2018-09-26T04:27:33.067Z,19.94
2018-09-26T04:28:31.471Z,19.95
2018-09-26T04:29:31.641Z,19.94
2018-09-26T04:30:32.473Z,19.9
2018-09-26T04:31:31.645Z,19.91
2018-09-26T04:32:31.799Z,19.94
2018-09-26T04:33:32.422Z,19.91
2018-09-26T04:34:31.823Z,19.91
2018-09-26T04:35:31.536Z,19.91
2018-09-26T04:36:31.516Z,19.94
2018-09-26T04:37:31.285Z,19.91
2018-09-26T04:38:32.099Z,19.92
2018-09-26T04:39:31.776Z,19.89
2018-09-26T04:40:31.550Z,19.94
2018-09-26T04:41:31.799Z,19.92
2018-09-26T04:42:31.275Z,19.91
2018-09-26T04:43:31.353Z,19.95
2018-09-26T04:44:31.411Z,19.94
2018-09-26T04:45:31.419Z,19.94
2018-09-26T04:46:31.364Z,19.91
2018-09-26T04:47:31.338Z,19.95
2018-09-26T04:48:31.301Z,19.92
2018-09-26T04:49:31.520Z,19.89
2018-09-26T04:50:31.275Z,19.92
2018-09-26T04:51:31.336Z,19.94
2018-09-26T04:52:31.387Z,19.94
2018-09-26T04:53:31.284Z,19.94
2018-09-26T04:54:31.487Z,19.9
2018-09-26T04:55:31.491Z,19.92
2018-09-26T04:56:31.420Z,19.94
2018-09-26T04:57:31.255Z,19.95
2018-09-26T04:58:31.274Z,19.94
2018-09-26T04:59:31.278Z,19.96
2018-09-26T05:00:31.238Z,19.91
2018-09-26T05:01:31.359Z,19.91
2018-09-26T05:02:31.398Z,19.92
2018-09-26T05:03:31.277Z,19.9
2018-09-26T05:04:31.277Z,19.91
2018-09-26T05:05:31.582Z,19.92
2018-09-26T05:06:31.235Z,19.95
2018-09-26T05:07:31.255Z,19.92
2018-09-26T05:08:31.260Z,19.92
2018-09-26T05:09:31.313Z,19.9
2018-09-26T05:10:31.482Z,19.94
2018-09-26T05:11:31.536Z,19.91
2018-09-26T05:12:31.415Z,19.92
2018-09-26T05:13:31.478Z,19.92
2018-09-26T05:14:31.607Z,19.91
2018-09-26T05:15:31.414Z,19.92
2018-09-26T05:16:31.456Z,19.91
2018-09-26T05:17:31.860Z,19.94
2018-09-26T05:18:31.356Z,19.91
2018-09-26T05:19:31.448Z,19.91
2018-09-26T05:20:31.420Z,19.91
2018-09-26T05:21:31.765Z,19.91
2018-09-26T05:22:31.524Z,19.9
2018-09-26T05:23:31.353Z,19.92
2018-09-26T05:24:31.345Z,19.9
2018-09-26T05:25:31.686Z,19.94
2018-09-26T05:26:31.507Z,19.94
2018-09-26T05:27:31.323Z,19.89
2018-09-26T05:28:31.695Z,19.91
2018-09-26T05:29:31.331Z,19.91
2018-09-26T05:30:32.420Z,19.94
2018-09-26T05:31:31.507Z,19.92
2018-09-26T05:32:31.844Z,19.92
2018-09-26T05:33:31.813Z,19.89
2018-09-26T05:34:31.386Z,19.89
2018-09-26T05:35:31.664Z,19.92
2018-09-26T05:36:31.432Z,19.92
2018-09-26T05:37:31.240Z,19.89
2018-09-26T05:38:31.585Z,19.91
2018-09-26T05:39:31.869Z,19.9
2018-09-26T05:40:31.488Z,19.91
2018-09-26T05:41:31.848Z,19.91
2018-09-26T05:42:31.315Z,19.91
2018-09-26T05:43:31.509Z,19.91
2018-09-26T05:44:31.614Z,19.9
2018-09-26T05:45:31.951Z,19.92
2018-09-26T05:46:31.278Z,19.9
2018-09-26T05:47:31.867Z,19.92
2018-09-26T05:48:31.394Z,19.89
2018-09-26T05:49:31.293Z,19.9
2018-09-26T05:50:31.512Z,19.9
2018-09-26T05:51:31.360Z,19.92
2018-09-26T05:52:31.346Z,19.9
2018-09-26T05:53:32.088Z,19.9
2018-09-26T05:54:31.389Z,19.89
2018-09-26T05:55:31.345Z,19.87
2018-09-26T05:56:31.643Z,19.88
2018-09-26T05:57:31.327Z,19.89
2018-09-26T05:58:31.667Z,19.9
2018-09-26T05:59:31.824Z,19.9
2018-09-26T06:00:31.412Z,19.88
2018-09-26T06:01:31.676Z,19.9
2018-09-26T06:02:31.271Z,19.9
2018-09-26T06:03:31.354Z,19.89
2018-09-26T06:04:31.750Z,19.9
2018-09-26T06:05:32.346Z,19.91
2018-09-26T06:06:31.383Z,19.89
2018-09-26T06:07:31.352Z,19.89
2018-09-26T06:08:31.314Z,19.89
2018-09-26T06:09:31.471Z,19.89
2018-09-26T06:10:31.444Z,19.88
2018-09-26T06:11:31.457Z,19.88
2018-09-26T06:12:31.359Z,19.87
2018-09-26T06:13:31.437Z,19.89
2018-09-26T06:14:31.217Z,19.87
2018-09-26T06:15:31.772Z,19.88
2018-09-26T06:16:31.237Z,19.88
2018-09-26T06:17:31.303Z,19.89
2018-09-26T06:18:31.375Z,19.9
2018-09-26T06:19:31.735Z,19.89
2018-09-26T06:20:31.319Z,19.89
2018-09-26T06:21:31.254Z,19.89
2018-09-26T06:22:31.489Z,19.89
2018-09-26T06:23:31.169Z,19.9
2018-09-26T06:24:31.752Z,19.9
2018-09-26T06:25:31.264Z,19.9
2018-09-26T06:26:31.531Z,19.89
2018-09-26T06:27:31.841Z,19.9
2018-09-26T06:28:31.181Z,19.9
2018-09-26T06:29:31.518Z,19.91
2018-09-26T06:30:31.350Z,19.89
2018-09-26T06:31:31.429Z,19.9
2018-09-26T06:32:31.778Z,19.89
2018-09-26T06:33:31.347Z,19.92
2018-09-26T06:34:31.445Z,19.89
2018-09-26T06:35:31.404Z,19.89
2018-09-26T06:36:31.423Z,19.89
2018-09-26T06:37:31.345Z,19.91
2018-09-26T06:38:31.467Z,19.89
2018-09-26T06:39:31.903Z,19.89
2018-09-26T06:40:32.330Z,19.88
2018-09-26T06:41:31.237Z,19.9
2018-09-26T06:42:32.333Z,19.9
2018-09-26T06:43:31.553Z,19.89
2018-09-26T06:44:32.249Z,19.89
2018-09-26T06:45:31.548Z,19.9
2018-09-26T06:46:31.372Z,19.87
2018-09-26T06:47:32.198Z,19.89
2018-09-26T06:48:31.339Z,19.89
2018-09-26T06:49:31.250Z,19.88
2018-09-26T06:50:31.386Z,19.89
2018-09-26T06:51:31.519Z,19.9
2018-09-26T06:52:31.466Z,19.89
2018-09-26T06:53:31.433Z,19.89
2018-09-26T06:54:31.440Z,19.88
2018-09-26T06:55:31.457Z,19.87
2018-09-26T06:56:31.330Z,19.87
2018-09-26T06:57:31.491Z,19.88
2018-09-26T06:58:31.780Z,19.88
2018-09-26T06:59:31.203Z,19.89
2018-09-26T07:00:31.173Z,19.87
2018-09-26T07:01:31.387Z,19.89
2018-09-26T07:02:31.321Z,19.89
2018-09-26T07:03:31.297Z,19.88
2018-09-26T07:04:31.280Z,19.89
2018-09-26T07:05:31.682Z,19.87
2018-09-26T07:06:31.779Z,19.89
2018-09-26T07:07:31.217Z,19.88
2018-09-26T07:08:31.673Z,19.88
2018-09-26T07:09:31.363Z,19.89
2018-09-26T07:10:31.263Z,19.89
2018-09-26T07:11:31.523Z,19.89
2018-09-26T07:12:31.443Z,19.88
2018-09-26T07:13:31.534Z,19.88
2018-09-26T07:14:31.306Z,19.89
2018-09-26T07:15:31.226Z,19.89
2018-09-26T07:16:31.423Z,19.87
2018-09-26T07:17:31.525Z,19.88
2018-09-26T07:18:31.298Z,19.87
2018-09-26T07:19:31.465Z,19.88
2018-09-26T07:20:31.274Z,19.86
2018-09-26T07:21:31.345Z,19.88
2018-09-26T07:22:31.395Z,19.89
2018-09-26T07:23:31.383Z,19.89
2018-09-26T07:24:31.336Z,19.89
2018-09-26T07:25:31.603Z,19.88
2018-09-26T07:26:31.305Z,19.9
2018-09-26T07:27:31.678Z,19.89
2018-09-26T07:28:31.533Z,19.89
2018-09-26T07:29:31.384Z,19.88
2018-09-26T07:30:31.286Z,19.89
2018-09-26T07:31:32.440Z,19.88
2018-09-26T07:32:31.554Z,19.88
2018-09-26T07:33:31.399Z,19.88
2018-09-26T07:34:31.323Z,19.92
2018-09-26T07:35:31.294Z,19.89
2018-09-26T07:36:31.493Z,19.94
2018-09-26T07:37:31.301Z,19.9
2018-09-26T07:38:32.272Z,19.94
2018-09-26T07:39:31.175Z,19.94
2018-09-26T07:40:31.357Z,19.94
2018-09-26T07:41:31.383Z,19.94
2018-09-26T07:42:31.483Z,19.94
2018-09-26T07:43:31.350Z,19.94
2018-09-26T07:44:31.327Z,19.94
2018-09-26T07:45:32.136Z,19.94
2018-09-26T07:46:31.450Z,19.97
2018-09-26T07:47:31.216Z,19.96
2018-09-26T07:48:31.401Z,19.99
2018-09-26T07:49:31.264Z,19.98
2018-09-26T07:50:31.292Z,19.97
2018-09-26T07:51:31.616Z,19.97
2018-09-26T07:52:31.597Z,19.99
2018-09-26T07:53:31.432Z,20
2018-09-26T07:54:31.353Z,20.03
2018-09-26T07:55:31.310Z,20.01
2018-09-26T07:56:31.542Z,20.01
2018-09-26T07:57:31.322Z,20.01
2018-09-26T07:58:31.432Z,20.01
2018-09-26T07:59:31.593Z,20
2018-09-26T08:00:31.413Z,20.03
2018-09-26T08:01:31.347Z,20.04
2018-09-26T08:02:31.480Z,20.02
2018-09-26T08:03:31.470Z,20.01
2018-09-26T08:04:31.431Z,20.03
2018-09-26T08:05:31.580Z,20.04
2018-09-26T08:06:31.426Z,20.05
2018-09-26T08:07:31.612Z,20.06
2018-09-26T08:08:31.366Z,20.07
2018-09-26T08:09:31.517Z,20.07
2018-09-26T08:10:31.434Z,20.07
2018-09-26T08:11:31.649Z,20.07
2018-09-26T08:12:31.173Z,20.06
2018-09-26T08:13:31.353Z,20.07
2018-09-26T08:14:31.280Z,20.1
2018-09-26T08:15:31.775Z,20.09
2018-09-26T08:16:31.295Z,20.12
2018-09-26T08:17:31.643Z,20.13
2018-09-26T08:18:31.696Z,20.14
2018-09-26T08:19:31.280Z,20.15
2018-09-26T08:20:31.495Z,20.13
2018-09-26T08:21:31.387Z,20.16
2018-09-26T08:22:31.354Z,20.16
2018-09-26T08:23:31.467Z,20.18
2018-09-26T08:24:31.446Z,20.2
2018-09-26T08:25:31.544Z,20.22
2018-09-26T08:26:31.413Z,20.2
2018-09-26T08:27:31.453Z,20.22
2018-09-26T08:28:31.546Z,20.21
2018-09-26T08:29:31.434Z,20.21
2018-09-26T08:30:31.352Z,20.24
2018-09-26T08:31:31.444Z,20.24
2018-09-26T08:32:31.318Z,20.26
2018-09-26T08:33:32.108Z,20.25
2018-09-26T08:34:31.427Z,20.25
2018-09-26T08:35:31.444Z,20.27
2018-09-26T08:36:31.441Z,20.27
2018-09-26T08:37:31.976Z,20.27
2018-09-26T08:38:31.583Z,20.27
2018-09-26T08:39:31.339Z,20.29
2018-09-26T08:40:31.628Z,20.3
2018-09-26T08:41:31.533Z,20.29
2018-09-26T08:42:31.463Z,20.3
2018-09-26T08:43:31.226Z,20.29
2018-09-26T08:44:32.218Z,20.3
2018-09-26T08:45:31.445Z,20.31
2018-09-26T08:46:31.473Z,20.31
2018-09-26T08:47:31.221Z,20.33
2018-09-26T08:48:31.562Z,20.31
2018-09-26T08:49:31.753Z,20.32
2018-09-26T08:50:31.402Z,20.34
2018-09-26T08:51:32.462Z,20.34
2018-09-26T08:52:31.362Z,20.34
2018-09-26T08:53:31.343Z,20.35
2018-09-26T08:54:31.780Z,20.34
2018-09-26T08:55:31.396Z,20.35
2018-09-26T08:56:31.291Z,20.37
2018-09-26T08:57:31.282Z,20.37
2018-09-26T08:58:31.297Z,20.32
2018-09-26T08:59:31.560Z,20.36
2018-09-26T09:00:31.394Z,20.35
2018-09-26T09:01:31.185Z,20.35
2018-09-26T09:02:31.337Z,20.35
2018-09-26T09:03:31.431Z,20.37
2018-09-26T09:04:31.292Z,20.34
2018-09-26T09:05:31.159Z,20.36
2018-09-26T09:06:31.168Z,20.37
2018-09-26T09:07:31.385Z,20.36
2018-09-26T09:08:00.395Z,20.36
2018-09-26T09:09:00.168Z,20.37
2018-09-26T09:10:00.326Z,20.36
2018-09-26T09:11:00.258Z,20.35
2018-09-26T09:12:00.289Z,20.3
2018-09-26T09:13:00.283Z,20.34
2018-09-26T09:14:00.296Z,20.33
2018-09-26T09:15:00.338Z,20.34
2018-09-26T09:16:01.357Z,20.36
2018-09-26T09:17:00.190Z,20.35
2018-09-26T09:18:00.178Z,20.35
2018-09-26T09:19:00.600Z,20.34
2018-09-26T09:20:00.438Z,20.33
2018-09-26T09:21:00.521Z,20.31
2018-09-26T09:22:00.846Z,20.32
2018-09-26T09:23:00.070Z,20.35
2018-09-26T09:24:00.121Z,20.35
2018-09-26T09:25:00.789Z,20.34
2018-09-26T09:26:00.280Z,20.35
2018-09-26T09:27:01.264Z,20.34
2018-09-26T09:28:00.267Z,20.31
2018-09-26T09:29:00.713Z,20.32
2018-09-26T09:30:01.131Z,20.3
2018-09-26T09:31:00.390Z,20.32
2018-09-26T09:32:00.518Z,20.32
2018-09-26T09:33:00.537Z,20.32
2018-09-26T09:34:00.439Z,20.3
2018-09-26T09:35:00.764Z,20.28
2018-09-26T09:36:00.348Z,20.32
2018-09-26T09:37:00.363Z,20.28
2018-09-26T09:38:00.562Z,20.28
2018-09-26T09:39:00.447Z,20.27
2018-09-26T09:40:00.455Z,20.27
2018-09-26T09:41:00.807Z,20.25
2018-09-26T09:42:00.428Z,20.24
2018-09-26T09:43:00.582Z,20.26
2018-09-26T09:44:01.126Z,20.25
2018-09-26T09:45:00.309Z,20.27
2018-09-26T09:46:00.395Z,20.25
2018-09-26T09:47:00.295Z,20.25
2018-09-26T09:48:00.311Z,20.24
2018-09-26T09:49:00.627Z,20.24
2018-09-26T09:50:00.417Z,20.24
2018-09-26T09:51:00.763Z,20.25
2018-09-26T09:52:00.428Z,20.21
2018-09-26T09:53:00.404Z,20.22
2018-09-26T09:54:00.102Z,20.19
2018-09-26T09:55:00.133Z,20.21
2018-09-26T09:56:07.718Z,20.22
2018-09-26T09:57:12.934Z,20.13
2018-09-26T09:58:12.642Z,20.09
2018-09-26T09:59:12.667Z,20.11
2018-09-26T10:00:12.465Z,20.1
2018-09-26T10:01:12.654Z,20.07
2018-09-26T10:02:12.557Z,20.04
2018-09-26T10:03:12.835Z,20.03
2018-09-26T10:04:12.706Z,19.95
2018-09-26T10:05:13.078Z,19.96
2018-09-26T10:06:19.950Z,20.03
2018-09-26T10:07:19.407Z,20.14
2018-09-26T10:08:20.124Z,20.16
2018-09-26T10:09:19.260Z,20.19
2018-09-26T10:10:19.271Z,20.2
2018-09-26T10:11:19.268Z,20.21
2018-09-26T10:12:19.238Z,20.24
2018-09-26T10:13:19.910Z,20.25
2018-09-26T10:14:20.129Z,20.25
2018-09-26T10:15:19.114Z,20.24
2018-09-26T10:16:19.376Z,20.24
2018-09-26T10:17:19.429Z,20.24
2018-09-26T10:18:19.430Z,20.24
2018-09-26T10:19:19.267Z,20.26
2018-09-26T10:20:19.995Z,20.24
2018-09-26T10:21:19.447Z,20.25
2018-09-26T10:22:19.689Z,20.24
2018-09-26T10:23:19.380Z,20.24
2018-09-26T10:24:19.450Z,20.25
2018-09-26T10:25:19.771Z,20.24
2018-09-26T10:26:19.935Z,20.26
2018-09-26T10:27:19.309Z,20.26
2018-09-26T10:28:19.638Z,20.27
2018-09-26T10:29:19.323Z,20.27
2018-09-26T10:30:19.346Z,20.26
2018-09-26T10:31:19.222Z,20.29
2018-09-26T10:32:20.123Z,20.31
2018-09-26T10:33:19.432Z,20.32
2018-09-26T10:34:19.296Z,20.3
2018-09-26T10:35:19.515Z,20.33
2018-09-26T10:36:19.220Z,20.3
2018-09-26T10:37:19.769Z,20.32
2018-09-26T10:38:20.015Z,20.3
2018-09-26T10:39:19.228Z,20.3
2018-09-26T10:40:19.204Z,20.3
2018-09-26T10:41:19.441Z,20.3
2018-09-26T10:42:19.692Z,20.32
2018-09-26T10:43:19.783Z,20.29
2018-09-26T10:44:19.727Z,20.3
2018-09-26T10:45:19.467Z,20.29
2018-09-26T10:46:19.430Z,20.3
2018-09-26T10:47:19.596Z,20.3
2018-09-26T10:48:19.251Z,20.3
2018-09-26T10:49:19.264Z,20.29
2018-09-26T10:50:19.694Z,20.29
2018-09-26T10:51:19.440Z,20.3
2018-09-26T10:52:19.212Z,20.29
2018-09-26T10:53:19.644Z,20.28
2018-09-26T10:54:19.300Z,20.28
2018-09-26T10:55:19.722Z,20.29
2018-09-26T10:56:20.214Z,20.29
2018-09-26T10:57:19.468Z,20.27
2018-09-26T10:58:19.406Z,20.28
2018-09-26T10:59:19.197Z,20.28
2018-09-26T11:00:19.310Z,20.27
2018-09-26T11:01:19.498Z,20.26
2018-09-26T11:02:19.955Z,20.28
2018-09-26T11:03:19.209Z,20.27
2018-09-26T11:04:20.013Z,20.3
2018-09-26T11:05:19.150Z,20.29
2018-09-26T11:06:19.450Z,20.29
2018-09-26T11:07:19.389Z,20.3
2018-09-26T11:08:19.539Z,20.3
2018-09-26T11:09:19.303Z,20.3
2018-09-26T11:10:19.636Z,20.3
2018-09-26T11:11:19.317Z,20.29
2018-09-26T11:12:19.397Z,20.29
2018-09-26T11:13:19.212Z,20.28
2018-09-26T11:14:19.733Z,20.3
2018-09-26T11:15:20.085Z,20.3
2018-09-26T11:16:19.871Z,20.33
2018-09-26T11:17:19.201Z,20.34
2018-09-26T11:18:19.409Z,20.33
2018-09-26T11:19:19.303Z,20.33
2018-09-26T11:20:20.241Z,20.33
2018-09-26T11:21:19.928Z,20.37
2018-09-26T11:22:20.231Z,20.35
2018-09-26T11:23:19.671Z,20.36
2018-09-26T11:24:19.313Z,20.36
2018-09-26T11:25:19.416Z,20.39
2018-09-26T11:26:20.554Z,20.41
2018-09-26T11:27:19.266Z,20.37
2018-09-26T11:28:20.049Z,20.4
2018-09-26T11:29:19.338Z,20.39
2018-09-26T11:30:19.310Z,20.39
2018-09-26T11:31:19.418Z,20.4
2018-09-26T11:32:20.022Z,20.41
2018-09-26T11:33:19.902Z,20.42
2018-09-26T11:34:19.944Z,20.41
2018-09-26T11:35:19.258Z,20.42
2018-09-26T11:36:19.360Z,20.4
2018-09-26T11:37:19.171Z,20.42
2018-09-26T11:38:20.392Z,20.42
2018-09-26T11:39:19.424Z,20.42
2018-09-26T11:40:19.873Z,20.42
2018-09-26T11:41:19.145Z,20.4
2018-09-26T11:42:19.171Z,20.39
2018-09-26T11:43:19.238Z,20.37
2018-09-26T11:44:20.100Z,20.37
2018-09-26T11:45:19.498Z,20.36
2018-09-26T11:46:20.099Z,20.36
2018-09-26T11:47:19.656Z,20.36
2018-09-26T11:48:19.380Z,20.35
2018-09-26T11:49:19.315Z,20.35
2018-09-26T11:50:19.789Z,20.34
2018-09-26T11:51:19.261Z,20.34
2018-09-26T11:52:20.110Z,20.33
2018-09-26T11:53:19.229Z,20.33
2018-09-26T11:54:19.514Z,20.34
2018-09-26T11:55:19.467Z,20.32
2018-09-26T11:56:19.647Z,20.33
2018-09-26T11:57:19.473Z,20.31
2018-09-26T11:58:19.891Z,20.32
2018-09-26T11:59:19.558Z,20.32
2018-09-26T12:00:19.489Z,20.3
2018-09-26T12:01:19.308Z,20.3
2018-09-26T12:02:19.915Z,20.3
2018-09-26T12:03:19.207Z,20.3
2018-09-26T12:04:19.940Z,20.3
2018-09-26T12:05:19.323Z,20.3
2018-09-26T12:06:20.052Z,20.29
2018-09-26T12:07:19.828Z,20.3
2018-09-26T12:08:20.062Z,20.3
2018-09-26T12:09:19.315Z,20.29
2018-09-26T12:10:19.956Z,20.27
2018-09-26T12:11:19.569Z,20.27
2018-09-26T12:12:19.967Z,20.3
2018-09-26T12:13:19.340Z,20.28
2018-09-26T12:14:19.342Z,20.28
2018-09-26T12:15:20.068Z,20.29
2018-09-26T12:16:19.925Z,20.29
2018-09-26T12:17:19.667Z,20.3
2018-09-26T12:18:19.938Z,20.31
2018-09-26T12:19:19.808Z,20.34
2018-09-26T12:20:19.697Z,20.35
2018-09-26T12:21:31.064Z,20.39
2018-09-26T12:22:20.345Z,20.37
2018-09-26T12:23:19.290Z,20.4
2018-09-26T12:24:19.928Z,20.39
2018-09-26T12:25:19.645Z,20.39
2018-09-26T12:26:19.309Z,20.4
2018-09-26T12:27:19.293Z,20.4
2018-09-26T12:28:19.668Z,20.43
2018-09-26T12:29:19.227Z,20.42
2018-09-26T12:30:21.057Z,20.4
2018-09-26T12:31:19.438Z,20.4
2018-09-26T12:32:19.097Z,20.41
2018-09-26T12:33:19.290Z,20.39
2018-09-26T12:34:19.593Z,20.4
2018-09-26T12:35:19.205Z,20.39
2018-09-26T12:36:19.519Z,20.41
2018-09-26T12:37:19.198Z,20.4
2018-09-26T12:38:19.274Z,20.41
2018-09-26T12:39:19.185Z,20.39
2018-09-26T12:40:19.993Z,20.39
2018-09-26T12:41:19.132Z,20.39
2018-09-26T12:42:20.341Z,20.36
2018-09-26T12:43:19.180Z,20.36
2018-09-26T12:44:19.148Z,20.36
2018-09-26T12:45:19.325Z,20.39
2018-09-26T12:46:19.919Z,20.39
2018-09-26T12:47:19.727Z,20.35
2018-09-26T12:48:19.616Z,20.39
2018-09-26T12:49:19.325Z,20.39
2018-09-26T12:50:19.388Z,20.4
2018-09-26T12:51:19.121Z,20.39
2018-09-26T12:52:19.907Z,20.4
2018-09-26T12:53:19.204Z,20.41
2018-09-26T12:54:19.432Z,20.42
2018-09-26T12:55:19.153Z,20.4
2018-09-26T12:56:19.569Z,20.4